Airfield :
LOGIN :

Register | Disclaimer

   EN    FR    IT 

 










Legend :    VFR   Marginal VFR   IFR   Intensive IFR   Very Intensive IFR
Visi :
Ceiling :
>= 8 km
>= 3000ft
5 to 8 km
1000 to 3000 ft
1500m to 5 km
500 to 1000 ft
800 to 1500m
200 to 500 ft
< 800m
< 200 ft
Symbols :   Thunderstorms  Fog  Heavy snow  Heavy precipitations  Wind > 20 kt
SIGMETs :     Misc.  Thunderstorms  Icing  Turbulence  Mountain Waves  Volcanic Ashes






- Airport Elevation : 326 ft
- IATA code : LCG


LECO - A Coruna

CURRENT METAR :
  • 212100Z 01003KT 310V070 9999 BKN032 09/04 Q1026 NOSIG

EXPIRED METARs :
  • 212030Z VRB03KT 9999 FEW032 SCT039 09/04 Q1026 NOSIG
  • 212000Z 09006KT 030V140 9999 BKN032 BKN039 09/04 Q1027 NOSIG
  • 211930Z 08010G20KT 030V140 9999 BKN032 09/05 Q1026
  • 211900Z 10010G21KT 060V150 9999 BKN030 10/05 Q1026
  • 211830Z 09011G21KT 050V140 9999 SCT035 09/04 Q1026
  • 211800Z 09013KT 050V150 9999 SCT036 10/04 Q1026

TAF TAF LECO
Valid from the 21 at 21:00 until the 22 at 21:00 UTC


212000Z 2121/2221 05012KT 9999 BKN030 TX12/2212Z TN06/2205Z
TEMPO 2121/2216 05015G25KT



MET'MAP, your aeronautical weather chart ! - Copyright ORBIFLY December 2007 - Disclaimer

ORBIFLY MET'MAP TEAM :

Programming & Development : Alexandra Zaïnal
Concept & original design : Baudouin d'Aumeries
Assistance for programming : Marc-Olivier Méhu
Technical & hardware support : Manuel Goepfert

Contact : metmap@orbifly.com




SOURCES & CREDITS :

   NOAA